sensor_id;sensor_type;location;lat;lon;timestamp;P1;durP1;ratioP1;P2;durP2;ratioP2
73154;SDS011;61364;52.418;7.382;2022-10-31T00:00:18;16.14;;;16.14;;
73154;SDS011;61364;52.418;7.382;2022-10-31T00:02:43;16.79;;;16.79;;
73154;SDS011;61364;52.418;7.382;2022-10-31T00:05:09;17.14;;;17.14;;
73154;SDS011;61364;52.418;7.382;2022-10-31T00:07:34;16.20;;;16.20;;
73154;SDS011;61364;52.418;7.382;2022-10-31T00:10:00;15.53;;;15.53;;
73154;SDS011;61364;52.418;7.382;2022-10-31T00:12:26;15.79;;;15.79;;
73154;SDS011;61364;52.418;7.382;2022-10-31T00:14:51;15.51;;;15.51;;
73154;SDS011;61364;52.418;7.382;2022-10-31T00:17:17;16.07;;;16.07;;
73154;SDS011;61364;52.418;7.382;2022-10-31T00:19:42;16.19;;;16.19;;
73154;SDS011;61364;52.418;7.382;2022-10-31T00:22:08;16.45;;;16.44;;
73154;SDS011;61364;52.418;7.382;2022-10-31T00:24:33;16.41;;;16.41;;
73154;SDS011;61364;52.418;7.382;2022-10-31T00:26:59;16.47;;;16.47;;
73154;SDS011;61364;52.418;7.382;2022-10-31T00:29:24;16.39;;;16.39;;
73154;SDS011;61364;52.418;7.382;2022-10-31T00:31:51;17.30;;;17.30;;
73154;SDS011;61364;52.418;7.382;2022-10-31T00:34:17;17.30;;;17.30;;
73154;SDS011;61364;52.418;7.382;2022-10-31T00:36:42;18.17;;;18.17;;
73154;SDS011;61364;52.418;7.382;2022-10-31T00:39:08;17.52;;;17.52;;
73154;SDS011;61364;52.418;7.382;2022-10-31T00:41:33;17.94;;;17.94;;
73154;SDS011;61364;52.418;7.382;2022-10-31T00:43:59;18.73;;;18.73;;
73154;SDS011;61364;52.418;7.382;2022-10-31T00:46:24;18.12;;;18.12;;
73154;SDS011;61364;52.418;7.382;2022-10-31T00:48:49;18.30;;;18.30;;
73154;SDS011;61364;52.418;7.382;2022-10-31T00:51:15;17.03;;;17.03;;
73154;SDS011;61364;52.418;7.382;2022-10-31T00:53:40;17.35;;;17.35;;
73154;SDS011;61364;52.418;7.382;2022-10-31T00:56:06;16.65;;;16.65;;
73154;SDS011;61364;52.418;7.382;2022-10-31T00:58:32;16.42;;;16.42;;
73154;SDS011;61364;52.418;7.382;2022-10-31T01:00:57;16.63;;;16.62;;
73154;SDS011;61364;52.418;7.382;2022-10-31T01:03:24;16.40;;;16.40;;
73154;SDS011;61364;52.418;7.382;2022-10-31T01:08:22;15.40;;;15.40;;
73154;SDS011;61364;52.418;7.382;2022-10-31T01:10:57;15.23;;;15.23;;
73154;SDS011;61364;52.418;7.382;2022-10-31T01:13:23;15.29;;;15.29;;
73154;SDS011;61364;52.418;7.382;2022-10-31T01:15:53;15.19;;;15.19;;
73154;SDS011;61364;52.418;7.382;2022-10-31T01:18:19;15.19;;;15.12;;
73154;SDS011;61364;52.418;7.382;2022-10-31T01:20:45;14.98;;;14.98;;
73154;SDS011;61364;52.418;7.382;2022-10-31T01:23:10;14.47;;;14.46;;
73154;SDS011;61364;52.418;7.382;2022-10-31T01:25:35;14.48;;;14.48;;
73154;SDS011;61364;52.418;7.382;2022-10-31T01:28:01;14.77;;;14.77;;
73154;SDS011;61364;52.418;7.382;2022-10-31T01:30:26;13.80;;;13.80;;
73154;SDS011;61364;52.418;7.382;2022-10-31T01:32:52;13.95;;;13.92;;
73154;SDS011;61364;52.418;7.382;2022-10-31T01:35:17;14.65;;;14.59;;
73154;SDS011;61364;52.418;7.382;2022-10-31T01:37:43;14.93;;;14.92;;
73154;SDS011;61364;52.418;7.382;2022-10-31T01:40:08;13.37;;;13.37;;
73154;SDS011;61364;52.418;7.382;2022-10-31T01:42:34;14.62;;;14.62;;
73154;SDS011;61364;52.418;7.382;2022-10-31T01:45:00;14.04;;;14.04;;
73154;SDS011;61364;52.418;7.382;2022-10-31T01:47:40;14.06;;;14.06;;
73154;SDS011;61364;52.418;7.382;2022-10-31T01:50:13;14.48;;;14.48;;
73154;SDS011;61364;52.418;7.382;2022-10-31T01:52:47;13.99;;;13.99;;
73154;SDS011;61364;52.418;7.382;2022-10-31T01:55:18;14.95;;;14.90;;
73154;SDS011;61364;52.418;7.382;2022-10-31T01:57:47;14.20;;;14.20;;
73154;SDS011;61364;52.418;7.382;2022-10-31T02:00:15;12.24;;;12.24;;
73154;SDS011;61364;52.418;7.382;2022-10-31T02:02:41;10.07;;;10.07;;
73154;SDS011;61364;52.418;7.382;2022-10-31T02:05:09;10.78;;;10.78;;
73154;SDS011;61364;52.418;7.382;2022-10-31T02:10:07;11.78;;;11.78;;
73154;SDS011;61364;52.418;7.382;2022-10-31T02:12:33;12.86;;;12.86;;
73154;SDS011;61364;52.418;7.382;2022-10-31T02:15:01;13.50;;;13.50;;
73154;SDS011;61364;52.418;7.382;2022-10-31T02:17:28;11.78;;;11.78;;
73154;SDS011;61364;52.418;7.382;2022-10-31T02:28:05;12.25;;;12.25;;
73154;SDS011;61364;52.418;7.382;2022-10-31T02:30:59;12.60;;;12.60;;
73154;SDS011;61364;52.418;7.382;2022-10-31T02:39:17;13.41;;;13.41;;
73154;SDS011;61364;52.418;7.382;2022-10-31T02:44:51;12.78;;;12.78;;
73154;SDS011;61364;52.418;7.382;2022-10-31T02:47:28;13.04;;;12.93;;
73154;SDS011;61364;52.418;7.382;2022-10-31T02:52:22;12.40;;;12.40;;
73154;SDS011;61364;52.418;7.382;2022-10-31T02:54:49;13.00;;;13.00;;
73154;SDS011;61364;52.418;7.382;2022-10-31T02:57:15;13.43;;;13.43;;
73154;SDS011;61364;52.418;7.382;2022-10-31T02:59:47;14.27;;;14.27;;
73154;SDS011;61364;52.418;7.382;2022-10-31T03:14:38;17.55;;;17.55;;
73154;SDS011;61364;52.418;7.382;2022-10-31T03:17:07;16.39;;;16.38;;
73154;SDS011;61364;52.418;7.382;2022-10-31T03:19:39;17.67;;;17.67;;
73154;SDS011;61364;52.418;7.382;2022-10-31T03:24:35;16.84;;;16.84;;
73154;SDS011;61364;52.418;7.382;2022-10-31T03:27:03;17.16;;;17.12;;
73154;SDS011;61364;52.418;7.382;2022-10-31T03:29:33;18.00;;;17.99;;
73154;SDS011;61364;52.418;7.382;2022-10-31T03:32:03;17.23;;;17.21;;
73154;SDS011;61364;52.418;7.382;2022-10-31T03:34:32;16.72;;;16.72;;
73154;SDS011;61364;52.418;7.382;2022-10-31T03:37:02;16.25;;;16.25;;
73154;SDS011;61364;52.418;7.382;2022-10-31T03:39:31;16.52;;;16.52;;
73154;SDS011;61364;52.418;7.382;2022-10-31T03:42:06;16.48;;;16.48;;
73154;SDS011;61364;52.418;7.382;2022-10-31T03:44:34;16.83;;;16.83;;
73154;SDS011;61364;52.418;7.382;2022-10-31T03:47:02;15.65;;;15.65;;
73154;SDS011;61364;52.418;7.382;2022-10-31T03:49:32;16.49;;;16.49;;
73154;SDS011;61364;52.418;7.382;2022-10-31T03:52:19;16.45;;;16.44;;
73154;SDS011;61364;52.418;7.382;2022-10-31T03:54:57;16.10;;;16.09;;
73154;SDS011;61364;52.418;7.382;2022-10-31T04:00:03;15.25;;;15.25;;
73154;SDS011;61364;52.418;7.382;2022-10-31T04:02:30;15.26;;;15.26;;
73154;SDS011;61364;52.418;7.382;2022-10-31T04:04:58;15.13;;;15.13;;
73154;SDS011;61364;52.418;7.382;2022-10-31T04:07:25;14.30;;;14.30;;
73154;SDS011;61364;52.418;7.382;2022-10-31T04:09:53;14.73;;;14.73;;
73154;SDS011;61364;52.418;7.382;2022-10-31T04:12:19;13.58;;;13.58;;
73154;SDS011;61364;52.418;7.382;2022-10-31T04:14:47;14.01;;;14.01;;
73154;SDS011;61364;52.418;7.382;2022-10-31T04:17:16;15.36;;;15.36;;
73154;SDS011;61364;52.418;7.382;2022-10-31T04:19:44;15.95;;;15.93;;
73154;SDS011;61364;52.418;7.382;2022-10-31T04:22:09;16.02;;;16.02;;
73154;SDS011;61364;52.418;7.382;2022-10-31T04:24:36;15.50;;;15.50;;
73154;SDS011;61364;52.418;7.382;2022-10-31T04:27:04;14.34;;;14.34;;
73154;SDS011;61364;52.418;7.382;2022-10-31T04:29:30;14.22;;;14.22;;
73154;SDS011;61364;52.418;7.382;2022-10-31T04:31:56;12.36;;;12.35;;
73154;SDS011;61364;52.418;7.382;2022-10-31T04:34:21;11.90;;;11.90;;
73154;SDS011;61364;52.418;7.382;2022-10-31T04:36:47;12.19;;;12.19;;
73154;SDS011;61364;52.418;7.382;2022-10-31T04:39:12;13.17;;;13.17;;
73154;SDS011;61364;52.418;7.382;2022-10-31T04:41:38;11.80;;;11.80;;
73154;SDS011;61364;52.418;7.382;2022-10-31T04:44:03;12.38;;;12.38;;
73154;SDS011;61364;52.418;7.382;2022-10-31T04:46:29;12.30;;;12.30;;
73154;SDS011;61364;52.418;7.382;2022-10-31T04:48:55;12.84;;;12.84;;
73154;SDS011;61364;52.418;7.382;2022-10-31T04:51:20;11.94;;;11.94;;
73154;SDS011;61364;52.418;7.382;2022-10-31T04:53:46;10.96;;;10.96;;
73154;SDS011;61364;52.418;7.382;2022-10-31T04:56:12;11.46;;;11.46;;
73154;SDS011;61364;52.418;7.382;2022-10-31T04:58:37;12.00;;;12.00;;
73154;SDS011;61364;52.418;7.382;2022-10-31T05:01:03;11.04;;;11.04;;
73154;SDS011;61364;52.418;7.382;2022-10-31T05:03:28;10.92;;;10.92;;
73154;SDS011;61364;52.418;7.382;2022-10-31T05:05:53;10.80;;;10.80;;
73154;SDS011;61364;52.418;7.382;2022-10-31T05:08:19;11.69;;;11.69;;
73154;SDS011;61364;52.418;7.382;2022-10-31T05:10:44;11.64;;;11.64;;
73154;SDS011;61364;52.418;7.382;2022-10-31T05:13:10;12.25;;;12.25;;
73154;SDS011;61364;52.418;7.382;2022-10-31T05:15:36;12.48;;;12.48;;
73154;SDS011;61364;52.418;7.382;2022-10-31T05:18:01;11.16;;;11.16;;
73154;SDS011;61364;52.418;7.382;2022-10-31T05:20:28;10.70;;;10.70;;
73154;SDS011;61364;52.418;7.382;2022-10-31T05:22:55;10.89;;;10.89;;
73154;SDS011;61364;52.418;7.382;2022-10-31T05:25:22;10.70;;;10.70;;
73154;SDS011;61364;52.418;7.382;2022-10-31T05:27:48;11.80;;;11.80;;
73154;SDS011;61364;52.418;7.382;2022-10-31T05:30:16;11.25;;;11.25;;
73154;SDS011;61364;52.418;7.382;2022-10-31T05:32:43;12.20;;;12.20;;
73154;SDS011;61364;52.418;7.382;2022-10-31T05:35:11;12.18;;;12.18;;
73154;SDS011;61364;52.418;7.382;2022-10-31T05:37:38;12.89;;;12.89;;
73154;SDS011;61364;52.418;7.382;2022-10-31T05:40:04;13.30;;;13.30;;
73154;SDS011;61364;52.418;7.382;2022-10-31T05:42:31;13.44;;;13.44;;
73154;SDS011;61364;52.418;7.382;2022-10-31T05:44:56;12.71;;;12.71;;
73154;SDS011;61364;52.418;7.382;2022-10-31T05:47:22;12.00;;;12.00;;
73154;SDS011;61364;52.418;7.382;2022-10-31T05:49:47;11.32;;;11.32;;
73154;SDS011;61364;52.418;7.382;2022-10-31T05:52:13;10.60;;;10.60;;
73154;SDS011;61364;52.418;7.382;2022-10-31T05:54:39;10.53;;;10.53;;
73154;SDS011;61364;52.418;7.382;2022-10-31T05:57:05;10.18;;;10.18;;
73154;SDS011;61364;52.418;7.382;2022-10-31T05:59:30;10.33;;;10.33;;
73154;SDS011;61364;52.418;7.382;2022-10-31T06:01:56;10.29;;;10.29;;
73154;SDS011;61364;52.418;7.382;2022-10-31T06:04:21;11.01;;;11.01;;
73154;SDS011;61364;52.418;7.382;2022-10-31T06:06:47;9.04;;;9.04;;
73154;SDS011;61364;52.418;7.382;2022-10-31T06:09:12;8.40;;;8.40;;
73154;SDS011;61364;52.418;7.382;2022-10-31T06:11:38;7.99;;;7.99;;
73154;SDS011;61364;52.418;7.382;2022-10-31T06:14:04;8.17;;;8.17;;
73154;SDS011;61364;52.418;7.382;2022-10-31T06:16:30;8.54;;;8.54;;
73154;SDS011;61364;52.418;7.382;2022-10-31T06:18:55;8.82;;;8.82;;
73154;SDS011;61364;52.418;7.382;2022-10-31T06:21:21;8.97;;;8.97;;
73154;SDS011;61364;52.418;7.382;2022-10-31T06:23:46;9.08;;;9.08;;
73154;SDS011;61364;52.418;7.382;2022-10-31T06:26:12;8.82;;;8.82;;
73154;SDS011;61364;52.418;7.382;2022-10-31T06:28:37;11.17;;;11.17;;
73154;SDS011;61364;52.418;7.382;2022-10-31T06:31:03;11.90;;;11.90;;
73154;SDS011;61364;52.418;7.382;2022-10-31T06:33:28;10.69;;;10.69;;
73154;SDS011;61364;52.418;7.382;2022-10-31T06:35:54;10.57;;;10.57;;
73154;SDS011;61364;52.418;7.382;2022-10-31T06:38:19;10.61;;;10.61;;
73154;SDS011;61364;52.418;7.382;2022-10-31T06:40:45;9.55;;;9.55;;
73154;SDS011;61364;52.418;7.382;2022-10-31T06:43:10;9.12;;;9.12;;
73154;SDS011;61364;52.418;7.382;2022-10-31T06:45:37;8.93;;;8.93;;
73154;SDS011;61364;52.418;7.382;2022-10-31T06:48:03;9.10;;;9.10;;
73154;SDS011;61364;52.418;7.382;2022-10-31T06:50:28;8.69;;;8.69;;
73154;SDS011;61364;52.418;7.382;2022-10-31T06:52:54;9.79;;;9.79;;
73154;SDS011;61364;52.418;7.382;2022-10-31T06:55:21;9.75;;;9.75;;
73154;SDS011;61364;52.418;7.382;2022-10-31T06:57:54;9.51;;;9.51;;
73154;SDS011;61364;52.418;7.382;2022-10-31T07:00:20;9.75;;;9.75;;
73154;SDS011;61364;52.418;7.382;2022-10-31T07:02:53;9.13;;;9.13;;
73154;SDS011;61364;52.418;7.382;2022-10-31T07:05:19;9.65;;;9.65;;
73154;SDS011;61364;52.418;7.382;2022-10-31T07:07:45;11.02;;;11.02;;
73154;SDS011;61364;52.418;7.382;2022-10-31T07:10:10;11.54;;;11.54;;
73154;SDS011;61364;52.418;7.382;2022-10-31T07:12:36;10.91;;;10.91;;
73154;SDS011;61364;52.418;7.382;2022-10-31T07:15:02;10.80;;;10.80;;
73154;SDS011;61364;52.418;7.382;2022-10-31T07:17:27;10.19;;;10.19;;
73154;SDS011;61364;52.418;7.382;2022-10-31T07:19:53;11.27;;;11.27;;
73154;SDS011;61364;52.418;7.382;2022-10-31T07:22:18;11.47;;;11.47;;
73154;SDS011;61364;52.418;7.382;2022-10-31T07:24:43;11.55;;;11.55;;
73154;SDS011;61364;52.418;7.382;2022-10-31T07:27:09;11.20;;;11.20;;
73154;SDS011;61364;52.418;7.382;2022-10-31T07:29:34;10.86;;;10.86;;
73154;SDS011;61364;52.418;7.382;2022-10-31T07:32:00;10.59;;;10.59;;
73154;SDS011;61364;52.418;7.382;2022-10-31T07:34:25;11.98;;;11.98;;
73154;SDS011;61364;52.418;7.382;2022-10-31T07:36:51;12.99;;;12.99;;
73154;SDS011;61364;52.418;7.382;2022-10-31T07:39:17;12.93;;;12.93;;
73154;SDS011;61364;52.418;7.382;2022-10-31T07:41:42;12.73;;;12.73;;
73154;SDS011;61364;52.418;7.382;2022-10-31T07:44:08;12.53;;;12.53;;
73154;SDS011;61364;52.418;7.382;2022-10-31T07:46:33;13.21;;;13.21;;
73154;SDS011;61364;52.418;7.382;2022-10-31T07:48:59;13.68;;;13.68;;
73154;SDS011;61364;52.418;7.382;2022-10-31T07:51:24;13.43;;;13.43;;
73154;SDS011;61364;52.418;7.382;2022-10-31T07:53:50;14.07;;;14.07;;
73154;SDS011;61364;52.418;7.382;2022-10-31T07:56:15;13.83;;;13.83;;
73154;SDS011;61364;52.418;7.382;2022-10-31T07:58:41;14.51;;;14.49;;
73154;SDS011;61364;52.418;7.382;2022-10-31T08:01:06;13.59;;;13.59;;
73154;SDS011;61364;52.418;7.382;2022-10-31T08:03:31;13.77;;;13.77;;
73154;SDS011;61364;52.418;7.382;2022-10-31T08:05:57;13.54;;;13.54;;
73154;SDS011;61364;52.418;7.382;2022-10-31T08:08:22;13.63;;;13.63;;
73154;SDS011;61364;52.418;7.382;2022-10-31T08:10:49;13.99;;;13.99;;
73154;SDS011;61364;52.418;7.382;2022-10-31T08:13:14;13.70;;;13.70;;
73154;SDS011;61364;52.418;7.382;2022-10-31T08:15:40;13.31;;;13.31;;
73154;SDS011;61364;52.418;7.382;2022-10-31T08:18:11;14.34;;;14.34;;
73154;SDS011;61364;52.418;7.382;2022-10-31T08:20:37;13.89;;;13.89;;
73154;SDS011;61364;52.418;7.382;2022-10-31T08:23:03;14.47;;;14.47;;
73154;SDS011;61364;52.418;7.382;2022-10-31T08:25:30;15.56;;;15.56;;
73154;SDS011;61364;52.418;7.382;2022-10-31T08:27:57;16.33;;;16.33;;
73154;SDS011;61364;52.418;7.382;2022-10-31T08:30:24;15.50;;;15.50;;
73154;SDS011;61364;52.418;7.382;2022-10-31T08:35:29;15.34;;;15.34;;
73154;SDS011;61364;52.418;7.382;2022-10-31T08:37:55;14.81;;;14.81;;
73154;SDS011;61364;52.418;7.382;2022-10-31T08:40:22;15.33;;;15.33;;
73154;SDS011;61364;52.418;7.382;2022-10-31T08:42:47;16.70;;;16.67;;
73154;SDS011;61364;52.418;7.382;2022-10-31T08:45:13;17.52;;;17.52;;
73154;SDS011;61364;52.418;7.382;2022-10-31T08:47:38;17.28;;;17.28;;
73154;SDS011;61364;52.418;7.382;2022-10-31T08:50:04;17.58;;;17.58;;
73154;SDS011;61364;52.418;7.382;2022-10-31T08:52:29;19.98;;;19.98;;
73154;SDS011;61364;52.418;7.382;2022-10-31T08:54:55;21.74;;;21.72;;
73154;SDS011;61364;52.418;7.382;2022-10-31T08:57:20;22.21;;;22.19;;
73154;SDS011;61364;52.418;7.382;2022-10-31T08:59:46;20.04;;;20.04;;
73154;SDS011;61364;52.418;7.382;2022-10-31T09:02:11;21.14;;;21.14;;
73154;SDS011;61364;52.418;7.382;2022-10-31T09:04:37;22.37;;;22.37;;
73154;SDS011;61364;52.418;7.382;2022-10-31T09:07:02;22.50;;;22.50;;
73154;SDS011;61364;52.418;7.382;2022-10-31T09:09:28;22.90;;;22.90;;
73154;SDS011;61364;52.418;7.382;2022-10-31T09:11:53;23.86;;;23.86;;
73154;SDS011;61364;52.418;7.382;2022-10-31T09:14:19;23.50;;;23.50;;
73154;SDS011;61364;52.418;7.382;2022-10-31T09:16:44;24.40;;;24.40;;
73154;SDS011;61364;52.418;7.382;2022-10-31T09:19:10;24.27;;;24.27;;
73154;SDS011;61364;52.418;7.382;2022-10-31T09:21:36;24.11;;;24.11;;
73154;SDS011;61364;52.418;7.382;2022-10-31T09:24:01;24.30;;;24.29;;
73154;SDS011;61364;52.418;7.382;2022-10-31T09:26:26;24.58;;;24.55;;
73154;SDS011;61364;52.418;7.382;2022-10-31T09:28:52;24.93;;;24.93;;
73154;SDS011;61364;52.418;7.382;2022-10-31T09:31:17;23.81;;;23.80;;
73154;SDS011;61364;52.418;7.382;2022-10-31T09:33:43;25.51;;;25.49;;
73154;SDS011;61364;52.418;7.382;2022-10-31T09:36:08;25.41;;;25.39;;
73154;SDS011;61364;52.418;7.382;2022-10-31T09:38:34;25.03;;;25.02;;
73154;SDS011;61364;52.418;7.382;2022-10-31T09:41:07;23.50;;;23.50;;
73154;SDS011;61364;52.418;7.382;2022-10-31T09:43:50;24.08;;;24.08;;
73154;SDS011;61364;52.418;7.382;2022-10-31T09:46:29;23.84;;;23.80;;
73154;SDS011;61364;52.418;7.382;2022-10-31T09:51:50;22.51;;;22.49;;
73154;SDS011;61364;52.418;7.382;2022-10-31T09:57:04;22.17;;;22.17;;
73154;SDS011;61364;52.418;7.382;2022-10-31T09:59:35;21.89;;;21.89;;
73154;SDS011;61364;52.418;7.382;2022-10-31T10:04:37;21.19;;;21.19;;
73154;SDS011;61364;52.418;7.382;2022-10-31T10:07:08;22.44;;;22.39;;
73154;SDS011;61364;52.418;7.382;2022-10-31T10:09:39;21.72;;;21.68;;
73154;SDS011;61364;52.418;7.382;2022-10-31T10:14:55;20.87;;;20.87;;
73154;SDS011;61364;52.418;7.382;2022-10-31T10:29:44;18.82;;;18.81;;
73154;SDS011;61364;52.418;7.382;2022-10-31T10:32:14;17.71;;;17.69;;
73154;SDS011;61364;52.418;7.382;2022-10-31T10:34:47;17.67;;;17.66;;
73154;SDS011;61364;52.418;7.382;2022-10-31T10:37:22;17.34;;;17.34;;
73154;SDS011;61364;52.418;7.382;2022-10-31T10:39:56;17.09;;;17.09;;
73154;SDS011;61364;52.418;7.382;2022-10-31T10:42:25;16.31;;;16.31;;
73154;SDS011;61364;52.418;7.382;2022-10-31T10:45:17;15.95;;;15.95;;
73154;SDS011;61364;52.418;7.382;2022-10-31T10:48:07;15.98;;;15.98;;
73154;SDS011;61364;52.418;7.382;2022-10-31T10:50:40;16.46;;;16.37;;
73154;SDS011;61364;52.418;7.382;2022-10-31T10:53:17;16.49;;;16.49;;
73154;SDS011;61364;52.418;7.382;2022-10-31T10:58:31;14.58;;;14.58;;
73154;SDS011;61364;52.418;7.382;2022-10-31T11:01:08;14.48;;;14.47;;
73154;SDS011;61364;52.418;7.382;2022-10-31T11:03:35;13.45;;;13.45;;
73154;SDS011;61364;52.418;7.382;2022-10-31T11:06:01;12.65;;;12.63;;
73154;SDS011;61364;52.418;7.382;2022-10-31T11:08:31;13.54;;;13.54;;
73154;SDS011;61364;52.418;7.382;2022-10-31T11:11:04;14.10;;;14.09;;
73154;SDS011;61364;52.418;7.382;2022-10-31T11:13:34;14.85;;;14.85;;
73154;SDS011;61364;52.418;7.382;2022-10-31T11:16:07;15.33;;;15.33;;
73154;SDS011;61364;52.418;7.382;2022-10-31T11:18:37;15.45;;;15.45;;
73154;SDS011;61364;52.418;7.382;2022-10-31T11:21:05;16.25;;;16.23;;
73154;SDS011;61364;52.418;7.382;2022-10-31T11:23:31;16.82;;;16.82;;
73154;SDS011;61364;52.418;7.382;2022-10-31T11:26:02;17.17;;;16.95;;
73154;SDS011;61364;52.418;7.382;2022-10-31T11:28:29;16.79;;;16.79;;
73154;SDS011;61364;52.418;7.382;2022-10-31T11:30:56;16.99;;;16.99;;
73154;SDS011;61364;52.418;7.382;2022-10-31T11:35:52;17.19;;;17.14;;
73154;SDS011;61364;52.418;7.382;2022-10-31T11:38:20;17.01;;;16.90;;
73154;SDS011;61364;52.418;7.382;2022-10-31T11:41:02;15.85;;;15.85;;
73154;SDS011;61364;52.418;7.382;2022-10-31T11:43:32;15.11;;;15.11;;
73154;SDS011;61364;52.418;7.382;2022-10-31T11:45:58;14.29;;;14.24;;
73154;SDS011;61364;52.418;7.382;2022-10-31T11:48:24;13.52;;;13.46;;
73154;SDS011;61364;52.418;7.382;2022-10-31T11:50:57;13.23;;;13.03;;
73154;SDS011;61364;52.418;7.382;2022-10-31T11:53:30;12.39;;;12.22;;
73154;SDS011;61364;52.418;7.382;2022-10-31T11:56:03;12.38;;;12.25;;
73154;SDS011;61364;52.418;7.382;2022-10-31T11:58:30;11.86;;;11.86;;
73154;SDS011;61364;52.418;7.382;2022-10-31T12:00:56;11.73;;;11.68;;
73154;SDS011;61364;52.418;7.382;2022-10-31T12:05:56;12.70;;;12.70;;
73154;SDS011;61364;52.418;7.382;2022-10-31T12:08:27;14.16;;;14.00;;
73154;SDS011;61364;52.418;7.382;2022-10-31T12:11:05;14.32;;;14.28;;
73154;SDS011;61364;52.418;7.382;2022-10-31T12:13:40;14.67;;;14.67;;
73154;SDS011;61364;52.418;7.382;2022-10-31T12:16:18;14.39;;;14.38;;
73154;SDS011;61364;52.418;7.382;2022-10-31T12:18:56;15.21;;;15.21;;
73154;SDS011;61364;52.418;7.382;2022-10-31T12:26:51;14.56;;;14.54;;
73154;SDS011;61364;52.418;7.382;2022-10-31T12:35:02;13.92;;;13.92;;
73154;SDS011;61364;52.418;7.382;2022-10-31T12:58:02;11.44;;;11.44;;
73154;SDS011;61364;52.418;7.382;2022-10-31T13:00:38;11.42;;;11.41;;
73154;SDS011;61364;52.418;7.382;2022-10-31T13:05:56;11.51;;;11.51;;
73154;SDS011;61364;52.418;7.382;2022-10-31T13:14:12;12.83;;;12.76;;
73154;SDS011;61364;52.418;7.382;2022-10-31T13:16:47;14.02;;;13.97;;
73154;SDS011;61364;52.418;7.382;2022-10-31T13:19:39;14.66;;;14.61;;
73154;SDS011;61364;52.418;7.382;2022-10-31T13:25:09;14.88;;;14.80;;
73154;SDS011;61364;52.418;7.382;2022-10-31T13:28:01;15.51;;;15.43;;
73154;SDS011;61364;52.418;7.382;2022-10-31T13:30:36;15.28;;;15.21;;
73154;SDS011;61364;52.418;7.382;2022-10-31T13:33:19;15.86;;;15.82;;
73154;SDS011;61364;52.418;7.382;2022-10-31T13:45:52;16.35;;;16.32;;
73154;SDS011;61364;52.418;7.382;2022-10-31T13:51:03;16.06;;;15.92;;
73154;SDS011;61364;52.418;7.382;2022-10-31T13:53:35;16.02;;;15.82;;
73154;SDS011;61364;52.418;7.382;2022-10-31T13:56:12;15.50;;;15.26;;
73154;SDS011;61364;52.418;7.382;2022-10-31T13:59:15;15.98;;;15.88;;
73154;SDS011;61364;52.418;7.382;2022-10-31T14:01:46;16.00;;;15.96;;
73154;SDS011;61364;52.418;7.382;2022-10-31T14:04:15;16.26;;;16.01;;
73154;SDS011;61364;52.418;7.382;2022-10-31T14:06:53;16.46;;;16.23;;
73154;SDS011;61364;52.418;7.382;2022-10-31T14:09:27;16.26;;;16.14;;
73154;SDS011;61364;52.418;7.382;2022-10-31T14:20:53;17.01;;;16.88;;
73154;SDS011;61364;52.418;7.382;2022-10-31T14:25:50;16.42;;;16.33;;
73154;SDS011;61364;52.418;7.382;2022-10-31T14:28:20;16.13;;;16.11;;
73154;SDS011;61364;52.418;7.382;2022-10-31T14:30:53;15.85;;;15.83;;
73154;SDS011;61364;52.418;7.382;2022-10-31T14:33:20;15.71;;;15.65;;
73154;SDS011;61364;52.418;7.382;2022-10-31T14:36:01;15.61;;;15.58;;
73154;SDS011;61364;52.418;7.382;2022-10-31T14:41:04;15.30;;;15.11;;
73154;SDS011;61364;52.418;7.382;2022-10-31T14:51:59;15.16;;;15.04;;
73154;SDS011;61364;52.418;7.382;2022-10-31T14:54:27;15.06;;;15.00;;
73154;SDS011;61364;52.418;7.382;2022-10-31T14:57:00;14.93;;;14.75;;
73154;SDS011;61364;52.418;7.382;2022-10-31T14:59:30;14.37;;;14.19;;
73154;SDS011;61364;52.418;7.382;2022-10-31T15:02:06;14.68;;;14.53;;
73154;SDS011;61364;52.418;7.382;2022-10-31T15:04:35;14.63;;;14.57;;
73154;SDS011;61364;52.418;7.382;2022-10-31T15:09:29;13.47;;;13.40;;
73154;SDS011;61364;52.418;7.382;2022-10-31T15:11:55;14.06;;;14.03;;
73154;SDS011;61364;52.418;7.382;2022-10-31T15:14:22;13.90;;;13.78;;
73154;SDS011;61364;52.418;7.382;2022-10-31T15:16:48;14.24;;;14.21;;
73154;SDS011;61364;52.418;7.382;2022-10-31T15:19:16;13.60;;;13.60;;
73154;SDS011;61364;52.418;7.382;2022-10-31T15:21:45;13.88;;;13.85;;
73154;SDS011;61364;52.418;7.382;2022-10-31T15:24:13;13.74;;;13.69;;
73154;SDS011;61364;52.418;7.382;2022-10-31T15:26:43;13.39;;;13.22;;
73154;SDS011;61364;52.418;7.382;2022-10-31T15:29:14;13.71;;;13.68;;
73154;SDS011;61364;52.418;7.382;2022-10-31T15:34:20;13.76;;;13.68;;
73154;SDS011;61364;52.418;7.382;2022-10-31T15:36:48;13.14;;;13.10;;
73154;SDS011;61364;52.418;7.382;2022-10-31T15:39:15;14.29;;;14.23;;
73154;SDS011;61364;52.418;7.382;2022-10-31T15:44:15;14.45;;;14.37;;
73154;SDS011;61364;52.418;7.382;2022-10-31T15:46:42;14.18;;;14.17;;
73154;SDS011;61364;52.418;7.382;2022-10-31T15:49:15;14.58;;;14.50;;
73154;SDS011;61364;52.418;7.382;2022-10-31T15:51:50;14.44;;;14.34;;
73154;SDS011;61364;52.418;7.382;2022-10-31T15:54:15;14.60;;;14.54;;
73154;SDS011;61364;52.418;7.382;2022-10-31T15:56:41;15.42;;;15.27;;
73154;SDS011;61364;52.418;7.382;2022-10-31T15:59:13;14.93;;;14.82;;
73154;SDS011;61364;52.418;7.382;2022-10-31T16:01:53;15.08;;;15.05;;
73154;SDS011;61364;52.418;7.382;2022-10-31T16:04:22;15.11;;;15.01;;
73154;SDS011;61364;52.418;7.382;2022-10-31T16:09:32;15.40;;;15.22;;
73154;SDS011;61364;52.418;7.382;2022-10-31T16:11:58;16.03;;;15.84;;
73154;SDS011;61364;52.418;7.382;2022-10-31T16:14:25;15.64;;;15.57;;
73154;SDS011;61364;52.418;7.382;2022-10-31T16:16:54;15.71;;;15.64;;
73154;SDS011;61364;52.418;7.382;2022-10-31T16:21:50;16.41;;;16.31;;
73154;SDS011;61364;52.418;7.382;2022-10-31T16:24:19;15.83;;;15.79;;
73154;SDS011;61364;52.418;7.382;2022-10-31T16:26:48;15.74;;;15.55;;
73154;SDS011;61364;52.418;7.382;2022-10-31T16:29:26;15.08;;;14.90;;
73154;SDS011;61364;52.418;7.382;2022-10-31T16:31:52;15.58;;;15.57;;
73154;SDS011;61364;52.418;7.382;2022-10-31T16:34:30;14.70;;;14.65;;
73154;SDS011;61364;52.418;7.382;2022-10-31T16:36:56;15.14;;;15.09;;
73154;SDS011;61364;52.418;7.382;2022-10-31T16:39:42;15.09;;;15.01;;
73154;SDS011;61364;52.418;7.382;2022-10-31T16:42:14;15.14;;;15.14;;
73154;SDS011;61364;52.418;7.382;2022-10-31T16:44:43;14.99;;;14.89;;
73154;SDS011;61364;52.418;7.382;2022-10-31T16:47:33;14.81;;;14.67;;
73154;SDS011;61364;52.418;7.382;2022-10-31T16:50:05;14.66;;;14.58;;
73154;SDS011;61364;52.418;7.382;2022-10-31T16:52:37;14.07;;;14.00;;
73154;SDS011;61364;52.418;7.382;2022-10-31T16:55:03;14.46;;;14.23;;
73154;SDS011;61364;52.418;7.382;2022-10-31T17:03:49;14.48;;;14.43;;
73154;SDS011;61364;52.418;7.382;2022-10-31T17:12:40;14.10;;;14.10;;
73154;SDS011;61364;52.418;7.382;2022-10-31T17:15:14;14.32;;;14.29;;
73154;SDS011;61364;52.418;7.382;2022-10-31T17:21:09;14.06;;;13.95;;
73154;SDS011;61364;52.418;7.382;2022-10-31T17:23:45;14.83;;;14.70;;
73154;SDS011;61364;52.418;7.382;2022-10-31T17:26:11;14.43;;;14.39;;
73154;SDS011;61364;52.418;7.382;2022-10-31T17:28:50;13.81;;;13.80;;
73154;SDS011;61364;52.418;7.382;2022-10-31T17:31:45;14.72;;;14.66;;
73154;SDS011;61364;52.418;7.382;2022-10-31T17:37:09;14.56;;;14.56;;